sensor_id;sensor_type;location;lat;lon;timestamp;pressure;altitude;pressure_sealevel;temperature;humidity
61018;BME280;48171;51.550;5.434;2023-07-08T00:00:19;101649.59;;;21.28;62.05
61018;BME280;48171;51.550;5.434;2023-07-08T00:02:45;101643.38;;;21.26;62.11
61018;BME280;48171;51.550;5.434;2023-07-08T00:05:12;101639.84;;;21.26;62.12
61018;BME280;48171;51.550;5.434;2023-07-08T00:07:39;101635.56;;;21.20;62.04
61018;BME280;48171;51.550;5.434;2023-07-08T00:12:36;101624.47;;;21.06;61.96
61018;BME280;48171;51.550;5.434;2023-07-08T00:15:01;101635.13;;;21.09;61.78
61018;BME280;48171;51.550;5.434;2023-07-08T00:17:26;101634.34;;;21.05;62.73
61018;BME280;48171;51.550;5.434;2023-07-08T00:19:51;101622.13;;;20.96;62.10
61018;BME280;48171;51.550;5.434;2023-07-08T00:22:19;101629.50;;;20.91;62.66
61018;BME280;48171;51.550;5.434;2023-07-08T00:24:44;101623.38;;;20.88;62.53
61018;BME280;48171;51.550;5.434;2023-07-08T00:27:11;101626.06;;;20.88;62.30
61018;BME280;48171;51.550;5.434;2023-07-08T00:29:37;101625.38;;;20.83;62.87
61018;BME280;48171;51.550;5.434;2023-07-08T00:32:10;101621.91;;;20.79;63.23
61018;BME280;48171;51.550;5.434;2023-07-08T00:34:35;101621.09;;;20.77;63.25
61018;BME280;48171;51.550;5.434;2023-07-08T00:37:00;101620.31;;;20.73;63.48
61018;BME280;48171;51.550;5.434;2023-07-08T00:39:31;101618.59;;;20.72;62.79
61018;BME280;48171;51.550;5.434;2023-07-08T00:41:58;101613.53;;;20.63;63.74
61018;BME280;48171;51.550;5.434;2023-07-08T00:44:25;101617.97;;;20.64;63.13
61018;BME280;48171;51.550;5.434;2023-07-08T00:46:57;101610.03;;;20.61;63.38
61018;BME280;48171;51.550;5.434;2023-07-08T00:49:34;101604.84;;;20.55;63.46
61018;BME280;48171;51.550;5.434;2023-07-08T00:52:21;101604.09;;;20.51;63.18
61018;BME280;48171;51.550;5.434;2023-07-08T00:54:52;101598.84;;;20.48;63.75
61018;BME280;48171;51.550;5.434;2023-07-08T00:57:17;101598.03;;;20.46;63.82
61018;BME280;48171;51.550;5.434;2023-07-08T00:59:57;101603.41;;;20.46;64.50
61018;BME280;48171;51.550;5.434;2023-07-08T01:02:26;101597.34;;;20.39;64.46
61018;BME280;48171;51.550;5.434;2023-07-08T01:04:58;101596.38;;;20.42;64.04
61018;BME280;48171;51.550;5.434;2023-07-08T01:09:56;101602.50;;;20.46;63.40
61018;BME280;48171;51.550;5.434;2023-07-08T01:12:26;101603.63;;;20.40;63.80
61018;BME280;48171;51.550;5.434;2023-07-08T01:14:54;101599.34;;;20.34;63.84
61018;BME280;48171;51.550;5.434;2023-07-08T01:17:21;101600.38;;;20.30;64.14
61018;BME280;48171;51.550;5.434;2023-07-08T01:19:47;101595.00;;;20.30;63.70
61018;BME280;48171;51.550;5.434;2023-07-08T01:22:12;101589.75;;;20.27;63.32
61018;BME280;48171;51.550;5.434;2023-07-08T01:24:40;101600.66;;;20.23;63.18
61018;BME280;48171;51.550;5.434;2023-07-08T01:27:09;101596.09;;;20.25;63.50
61018;BME280;48171;51.550;5.434;2023-07-08T01:29:35;101604.03;;;20.28;63.21
61018;BME280;48171;51.550;5.434;2023-07-08T01:32:01;101596.19;;;20.22;63.43
61018;BME280;48171;51.550;5.434;2023-07-08T01:34:28;101599.78;;;20.22;63.90
61018;BME280;48171;51.550;5.434;2023-07-08T01:36:55;101603.41;;;20.19;63.30
61018;BME280;48171;51.550;5.434;2023-07-08T01:39:23;101598.88;;;20.22;64.07
61018;BME280;48171;51.550;5.434;2023-07-08T01:41:49;101597.22;;;20.17;63.56
61018;BME280;48171;51.550;5.434;2023-07-08T01:44:22;101598.06;;;20.19;63.52
61018;BME280;48171;51.550;5.434;2023-07-08T01:46:48;101598.19;;;20.16;63.06
61018;BME280;48171;51.550;5.434;2023-07-08T01:49:13;101593.91;;;20.11;64.23
61018;BME280;48171;51.550;5.434;2023-07-08T01:51:38;101603.84;;;20.07;63.00
61018;BME280;48171;51.550;5.434;2023-07-08T01:54:04;101598.47;;;20.07;63.60
61018;BME280;48171;51.550;5.434;2023-07-08T01:56:29;101593.25;;;20.04;64.54
61018;BME280;48171;51.550;5.434;2023-07-08T01:58:54;101589.53;;;20.08;63.75
61018;BME280;48171;51.550;5.434;2023-07-08T02:01:20;101580.66;;;20.06;64.25
61018;BME280;48171;51.550;5.434;2023-07-08T02:03:45;101575.41;;;20.02;65.06
61018;BME280;48171;51.550;5.434;2023-07-08T02:06:11;101577.25;;;20.01;64.76
61018;BME280;48171;51.550;5.434;2023-07-08T02:08:36;101574.59;;;19.99;63.92
61018;BME280;48171;51.550;5.434;2023-07-08T02:11:02;101570.28;;;19.95;64.60
61018;BME280;48171;51.550;5.434;2023-07-08T02:13:27;101574.72;;;19.96;64.75
61018;BME280;48171;51.550;5.434;2023-07-08T02:15:52;101569.44;;;19.93;64.63
61018;BME280;48171;51.550;5.434;2023-07-08T02:18:18;101558.03;;;19.88;65.28
61018;BME280;48171;51.550;5.434;2023-07-08T02:20:44;101560.78;;;19.85;64.63
61018;BME280;48171;51.550;5.434;2023-07-08T02:23:09;101546.63;;;19.82;65.44
61018;BME280;48171;51.550;5.434;2023-07-08T02:25:35;101550.19;;;19.82;65.42
61018;BME280;48171;51.550;5.434;2023-07-08T02:28:00;101547.50;;;19.82;65.67
61018;BME280;48171;51.550;5.434;2023-07-08T02:30:26;101551.19;;;19.80;65.68
61018;BME280;48171;51.550;5.434;2023-07-08T02:32:52;101544.16;;;19.75;65.55
61018;BME280;48171;51.550;5.434;2023-07-08T02:35:29;101545.03;;;19.76;65.58
61018;BME280;48171;51.550;5.434;2023-07-08T02:37:56;101541.56;;;19.72;65.37
61018;BME280;48171;51.550;5.434;2023-07-08T02:40:23;101538.94;;;19.71;65.41
61018;BME280;48171;51.550;5.434;2023-07-08T02:42:48;101542.63;;;19.67;66.12
61018;BME280;48171;51.550;5.434;2023-07-08T02:45:15;101535.59;;;19.63;66.37
61018;BME280;48171;51.550;5.434;2023-07-08T02:47:40;101541.13;;;19.58;66.18
61018;BME280;48171;51.550;5.434;2023-07-08T02:50:08;101538.53;;;19.55;66.93
61018;BME280;48171;51.550;5.434;2023-07-08T02:52:34;101542.16;;;19.54;67.26
61018;BME280;48171;51.550;5.434;2023-07-08T02:54:59;101537.78;;;19.51;67.05
61018;BME280;48171;51.550;5.434;2023-07-08T02:57:25;101547.72;;;19.48;66.90
61018;BME280;48171;51.550;5.434;2023-07-08T02:59:50;101552.16;;;19.49;67.22
61018;BME280;48171;51.550;5.434;2023-07-08T03:02:15;101553.25;;;19.43;67.02
61018;BME280;48171;51.550;5.434;2023-07-08T03:04:40;101552.31;;;19.44;66.93
61018;BME280;48171;51.550;5.434;2023-07-08T03:07:07;101560.53;;;19.38;66.56
61018;BME280;48171;51.550;5.434;2023-07-08T03:09:39;101560.53;;;19.38;67.53
61018;BME280;48171;51.550;5.434;2023-07-08T03:12:09;101569.53;;;19.37;66.05
61018;BME280;48171;51.550;5.434;2023-07-08T03:14:34;101563.38;;;19.33;66.86
61018;BME280;48171;51.550;5.434;2023-07-08T03:17:01;101562.56;;;19.31;67.58
61018;BME280;48171;51.550;5.434;2023-07-08T03:19:26;101555.47;;;19.29;67.88
61018;BME280;48171;51.550;5.434;2023-07-08T03:21:51;101550.09;;;19.29;68.19
61018;BME280;48171;51.550;5.434;2023-07-08T03:24:17;101551.09;;;19.26;67.99
61018;BME280;48171;51.550;5.434;2023-07-08T03:26:43;101549.41;;;19.24;68.13
61018;BME280;48171;51.550;5.434;2023-07-08T03:29:17;101560.94;;;19.26;68.06
61018;BME280;48171;51.550;5.434;2023-07-08T03:31:43;101551.13;;;19.25;67.83
61018;BME280;48171;51.550;5.434;2023-07-08T03:34:13;101556.50;;;19.25;67.52
61018;BME280;48171;51.550;5.434;2023-07-08T03:36:43;101561.09;;;19.21;68.17
61018;BME280;48171;51.550;5.434;2023-07-08T03:39:13;101553.09;;;19.19;67.63
61018;BME280;48171;51.550;5.434;2023-07-08T03:41:38;101561.13;;;19.19;67.88
61018;BME280;48171;51.550;5.434;2023-07-08T03:44:04;101565.75;;;19.14;68.59
61018;BME280;48171;51.550;5.434;2023-07-08T03:46:29;101562.31;;;19.11;68.78
61018;BME280;48171;51.550;5.434;2023-07-08T03:48:54;101564.16;;;19.09;68.55
61018;BME280;48171;51.550;5.434;2023-07-08T03:51:23;101568.69;;;19.07;69.04
61018;BME280;48171;51.550;5.434;2023-07-08T03:53:49;101571.38;;;19.07;68.84
61018;BME280;48171;51.550;5.434;2023-07-08T03:56:14;101567.78;;;19.06;68.64
61018;BME280;48171;51.550;5.434;2023-07-08T03:58:39;101570.47;;;19.06;68.59
61018;BME280;48171;51.550;5.434;2023-07-08T04:01:12;101575.00;;;19.04;68.85
61018;BME280;48171;51.550;5.434;2023-07-08T04:03:39;101575.91;;;19.05;69.34
61018;BME280;48171;51.550;5.434;2023-07-08T04:06:04;101577.78;;;19.01;70.04
61018;BME280;48171;51.550;5.434;2023-07-08T04:11:00;101578.63;;;19.03;69.54
61018;BME280;48171;51.550;5.434;2023-07-08T04:13:25;101581.28;;;19.03;68.75
61018;BME280;48171;51.550;5.434;2023-07-08T04:15:57;101574.16;;;19.02;69.37
61018;BME280;48171;51.550;5.434;2023-07-08T04:18:24;101583.19;;;18.99;69.30
61018;BME280;48171;51.550;5.434;2023-07-08T04:20:49;101579.56;;;19.01;69.85
61018;BME280;48171;51.550;5.434;2023-07-08T04:23:18;101575.16;;;18.99;69.47
61018;BME280;48171;51.550;5.434;2023-07-08T04:25:43;101586.75;;;18.98;69.96
61018;BME280;48171;51.550;5.434;2023-07-08T04:28:09;101586.75;;;18.98;70.52
61018;BME280;48171;51.550;5.434;2023-07-08T04:30:34;101583.22;;;18.98;70.60
61018;BME280;48171;51.550;5.434;2023-07-08T04:33:06;101585.00;;;18.99;70.80
61018;BME280;48171;51.550;5.434;2023-07-08T04:35:33;101569.81;;;18.98;70.67
61018;BME280;48171;51.550;5.434;2023-07-08T04:37:58;101577.88;;;18.98;70.85
61018;BME280;48171;51.550;5.434;2023-07-08T04:40:23;101571.72;;;18.94;71.15
61018;BME280;48171;51.550;5.434;2023-07-08T04:42:48;101572.50;;;18.98;71.46
61018;BME280;48171;51.550;5.434;2023-07-08T04:45:16;101570.81;;;18.95;71.97
61018;BME280;48171;51.550;5.434;2023-07-08T04:47:42;101571.72;;;18.94;72.27
61018;BME280;48171;51.550;5.434;2023-07-08T04:50:07;101573.53;;;18.94;71.41
61018;BME280;48171;51.550;5.434;2023-07-08T04:52:33;101574.38;;;18.94;71.34
61018;BME280;48171;51.550;5.434;2023-07-08T04:54:58;101575.28;;;18.95;71.95
61018;BME280;48171;51.550;5.434;2023-07-08T04:57:23;101576.19;;;18.94;71.63
61018;BME280;48171;51.550;5.434;2023-07-08T04:59:50;101575.22;;;18.96;72.15
61018;BME280;48171;51.550;5.434;2023-07-08T05:02:15;101571.69;;;18.96;71.63
61018;BME280;48171;51.550;5.434;2023-07-08T05:04:40;101575.19;;;18.98;71.71
61018;BME280;48171;51.550;5.434;2023-07-08T05:07:05;101574.31;;;18.97;71.69
61018;BME280;48171;51.550;5.434;2023-07-08T05:09:31;101564.47;;;18.98;71.90
61018;BME280;48171;51.550;5.434;2023-07-08T05:11:56;101569.81;;;18.98;72.50
61018;BME280;48171;51.550;5.434;2023-07-08T05:14:22;101576.97;;;18.99;72.06
61018;BME280;48171;51.550;5.434;2023-07-08T05:16:47;101572.47;;;18.99;71.98
61018;BME280;48171;51.550;5.434;2023-07-08T05:19:13;101576.88;;;19.01;72.11
61018;BME280;48171;51.550;5.434;2023-07-08T05:21:38;101571.53;;;19.01;71.98
61018;BME280;48171;51.550;5.434;2023-07-08T05:24:04;101572.34;;;19.03;71.68
61018;BME280;48171;51.550;5.434;2023-07-08T05:26:30;101570.63;;;19.02;72.24
61018;BME280;48171;51.550;5.434;2023-07-08T05:28:56;101575.03;;;19.03;71.97
61018;BME280;48171;51.550;5.434;2023-07-08T05:31:21;101574.16;;;19.02;72.17
61018;BME280;48171;51.550;5.434;2023-07-08T05:33:46;101561.66;;;19.03;72.12
61018;BME280;48171;51.550;5.434;2023-07-08T05:36:12;101562.59;;;19.02;72.28
61018;BME280;48171;51.550;5.434;2023-07-08T05:38:37;101568.69;;;19.07;72.34
61018;BME280;48171;51.550;5.434;2023-07-08T05:41:03;101564.19;;;19.07;72.29
61018;BME280;48171;51.550;5.434;2023-07-08T05:43:28;101562.44;;;19.06;72.46
61018;BME280;48171;51.550;5.434;2023-07-08T05:46:00;101558.84;;;19.07;72.11
61018;BME280;48171;51.550;5.434;2023-07-08T05:48:26;101558.81;;;19.09;72.36
61018;BME280;48171;51.550;5.434;2023-07-08T05:50:51;101560.53;;;19.10;72.14
61018;BME280;48171;51.550;5.434;2023-07-08T05:53:18;101565.06;;;19.08;72.61
61018;BME280;48171;51.550;5.434;2023-07-08T05:55:47;101564.09;;;19.10;73.11
61018;BME280;48171;51.550;5.434;2023-07-08T05:58:13;101564.91;;;19.12;72.49
61018;BME280;48171;51.550;5.434;2023-07-08T06:00:41;101572.03;;;19.13;73.35
61018;BME280;48171;51.550;5.434;2023-07-08T06:03:07;101567.59;;;19.12;72.57
61018;BME280;48171;51.550;5.434;2023-07-08T06:05:32;101571.94;;;19.16;72.62
61018;BME280;48171;51.550;5.434;2023-07-08T06:07:58;101563.16;;;19.13;73.05
61018;BME280;48171;51.550;5.434;2023-07-08T06:10:24;101572.75;;;19.18;73.01
61018;BME280;48171;51.550;5.434;2023-07-08T06:12:49;101560.31;;;19.17;73.02
61018;BME280;48171;51.550;5.434;2023-07-08T06:15:15;101572.72;;;19.20;73.61
61018;BME280;48171;51.550;5.434;2023-07-08T06:17:40;101580.69;;;19.23;73.02
61018;BME280;48171;51.550;5.434;2023-07-08T06:20:06;101584.19;;;19.25;72.56
61018;BME280;48171;51.550;5.434;2023-07-08T06:22:31;101573.47;;;19.25;72.93
61018;BME280;48171;51.550;5.434;2023-07-08T06:24:57;101566.31;;;19.26;73.46
61018;BME280;48171;51.550;5.434;2023-07-08T06:32:18;101575.78;;;19.36;72.61
61018;BME280;48171;51.550;5.434;2023-07-08T06:34:43;101566.09;;;19.32;73.42
61018;BME280;48171;51.550;5.434;2023-07-08T06:37:08;101577.44;;;19.40;72.91
61018;BME280;48171;51.550;5.434;2023-07-08T06:39:33;101570.25;;;19.42;73.26
61018;BME280;48171;51.550;5.434;2023-07-08T06:41:59;101576.44;;;19.44;72.71
61018;BME280;48171;51.550;5.434;2023-07-08T06:44:24;101578.13;;;19.47;73.33
61018;BME280;48171;51.550;5.434;2023-07-08T06:46:51;101574.53;;;19.48;73.14
61018;BME280;48171;51.550;5.434;2023-07-08T06:49:16;101577.88;;;19.54;73.56
61018;BME280;48171;51.550;5.434;2023-07-08T06:51:42;101576.06;;;19.55;73.14
61018;BME280;48171;51.550;5.434;2023-07-08T06:54:08;101570.63;;;19.58;72.71
61018;BME280;48171;51.550;5.434;2023-07-08T06:56:40;101576.81;;;19.60;72.84
61018;BME280;48171;51.550;5.434;2023-07-08T06:59:06;101579.19;;;19.69;71.91
61018;BME280;48171;51.550;5.434;2023-07-08T07:01:32;101576.56;;;19.68;72.51
61018;BME280;48171;51.550;5.434;2023-07-08T07:03:57;101570.25;;;19.69;72.75
61018;BME280;48171;51.550;5.434;2023-07-08T07:06:22;101574.69;;;19.71;72.67
61018;BME280;48171;51.550;5.434;2023-07-08T07:08:48;101570.97;;;19.75;71.99
61018;BME280;48171;51.550;5.434;2023-07-08T07:11:13;101571.72;;;19.79;73.57
61018;BME280;48171;51.550;5.434;2023-07-08T07:13:38;101561.00;;;19.79;72.94
61018;BME280;48171;51.550;5.434;2023-07-08T07:16:05;101568.00;;;19.83;73.80
61018;BME280;48171;51.550;5.434;2023-07-08T07:18:31;101554.56;;;19.85;73.37
61018;BME280;48171;51.550;5.434;2023-07-08T07:20:58;101564.25;;;19.89;73.16
61018;BME280;48171;51.550;5.434;2023-07-08T07:23:24;101563.25;;;19.91;74.40
61018;BME280;48171;51.550;5.434;2023-07-08T07:25:49;101570.28;;;19.95;72.99
61018;BME280;48171;51.550;5.434;2023-07-08T07:28:15;101569.31;;;19.98;73.44
61018;BME280;48171;51.550;5.434;2023-07-08T07:30:44;101569.22;;;19.99;74.18
61018;BME280;48171;51.550;5.434;2023-07-08T07:33:10;101575.41;;;20.02;72.70
61018;BME280;48171;51.550;5.434;2023-07-08T07:35:36;101564.59;;;20.05;72.97
61018;BME280;48171;51.550;5.434;2023-07-08T07:38:06;101571.78;;;20.04;72.36
61018;BME280;48171;51.550;5.434;2023-07-08T07:40:31;101553.81;;;20.06;73.49
61018;BME280;48171;51.550;5.434;2023-07-08T07:42:56;101565.25;;;20.11;73.72
61018;BME280;48171;51.550;5.434;2023-07-08T07:45:22;101568.66;;;20.16;73.02
61018;BME280;48171;51.550;5.434;2023-07-08T07:47:47;101572.03;;;20.22;73.27
61018;BME280;48171;51.550;5.434;2023-07-08T07:50:13;101566.44;;;20.28;75.16
61018;BME280;48171;51.550;5.434;2023-07-08T07:52:38;101563.34;;;20.40;74.03
61018;BME280;48171;51.550;5.434;2023-07-08T07:55:03;101570.13;;;20.50;74.44
61018;BME280;48171;51.550;5.434;2023-07-08T07:57:29;101566.19;;;20.61;73.59
61018;BME280;48171;51.550;5.434;2023-07-08T07:59:54;101562.47;;;20.65;75.96
61018;BME280;48171;51.550;5.434;2023-07-08T08:02:20;101555.03;;;20.71;75.24
61018;BME280;48171;51.550;5.434;2023-07-08T08:04:45;101555.00;;;20.73;72.46
61018;BME280;48171;51.550;5.434;2023-07-08T08:07:11;101555.00;;;20.73;74.92
61018;BME280;48171;51.550;5.434;2023-07-08T08:09:37;101557.63;;;20.74;73.86
61018;BME280;48171;51.550;5.434;2023-07-08T08:12:03;101561.13;;;20.76;75.53
61018;BME280;48171;51.550;5.434;2023-07-08T08:14:29;101558.44;;;20.76;74.48
61018;BME280;48171;51.550;5.434;2023-07-08T08:16:54;101564.75;;;20.75;73.33
61018;BME280;48171;51.550;5.434;2023-07-08T08:19:19;101567.25;;;20.80;75.14
61018;BME280;48171;51.550;5.434;2023-07-08T08:21:45;101563.63;;;20.81;73.42
61018;BME280;48171;51.550;5.434;2023-07-08T08:24:10;101563.44;;;20.86;74.48
61018;BME280;48171;51.550;5.434;2023-07-08T08:26:35;101569.34;;;20.95;73.28
61018;BME280;48171;51.550;5.434;2023-07-08T08:29:02;101578.94;;;21.03;75.90
61018;BME280;48171;51.550;5.434;2023-07-08T08:31:28;101576.16;;;21.04;74.52
61018;BME280;48171;51.550;5.434;2023-07-08T08:33:53;101580.31;;;21.13;76.30
61018;BME280;48171;51.550;5.434;2023-07-08T08:36:19;101576.69;;;21.14;73.72
61018;BME280;48171;51.550;5.434;2023-07-08T08:38:45;101575.56;;;21.20;74.07
61018;BME280;48171;51.550;5.434;2023-07-08T08:41:16;101580.69;;;21.26;72.80
61018;BME280;48171;51.550;5.434;2023-07-08T08:43:44;101581.56;;;21.26;71.92
61018;BME280;48171;51.550;5.434;2023-07-08T08:49:05;101585.47;;;21.41;73.98
61018;BME280;48171;51.550;5.434;2023-07-08T08:51:34;101581.50;;;21.51;73.04
61018;BME280;48171;51.550;5.434;2023-07-08T08:54:00;101586.88;;;21.51;71.01
61018;BME280;48171;51.550;5.434;2023-07-08T08:56:34;101582.31;;;21.53;71.32
61018;BME280;48171;51.550;5.434;2023-07-08T09:01:38;101590.28;;;21.77;70.13
61018;BME280;48171;51.550;5.434;2023-07-08T09:04:16;101590.03;;;21.83;73.51
61018;BME280;48171;51.550;5.434;2023-07-08T09:06:42;101597.78;;;21.91;70.88
61018;BME280;48171;51.550;5.434;2023-07-08T09:09:30;101600.34;;;21.94;69.87
61018;BME280;48171;51.550;5.434;2023-07-08T09:12:08;101603.91;;;21.94;68.78
61018;BME280;48171;51.550;5.434;2023-07-08T09:14:36;101594.00;;;21.95;69.98
61018;BME280;48171;51.550;5.434;2023-07-08T09:17:32;101596.44;;;22.01;70.00
61018;BME280;48171;51.550;5.434;2023-07-08T09:22:54;101586.44;;;22.05;71.41
61018;BME280;48171;51.550;5.434;2023-07-08T09:25:35;101589.97;;;22.05;70.77
61018;BME280;48171;51.550;5.434;2023-07-08T09:28:01;101577.44;;;22.06;71.62
61018;BME280;48171;51.550;5.434;2023-07-08T09:30:27;101571.88;;;22.09;70.62
61018;BME280;48171;51.550;5.434;2023-07-08T09:32:54;101582.31;;;22.16;72.15
61018;BME280;48171;51.550;5.434;2023-07-08T09:35:27;101587.41;;;22.24;71.82
61018;BME280;48171;51.550;5.434;2023-07-08T09:37:54;101586.63;;;22.21;69.85
61018;BME280;48171;51.550;5.434;2023-07-08T09:40:22;101591.97;;;22.22;67.51
61018;BME280;48171;51.550;5.434;2023-07-08T09:42:53;101586.41;;;22.27;69.11
61018;BME280;48171;51.550;5.434;2023-07-08T09:45:23;101584.28;;;22.33;69.63
61018;BME280;48171;51.550;5.434;2023-07-08T09:47:53;101576.91;;;22.39;68.56
61018;BME280;48171;51.550;5.434;2023-07-08T09:52:47;101571.88;;;22.50;68.88
61018;BME280;48171;51.550;5.434;2023-07-08T09:55:13;101563.69;;;22.53;68.44
61018;BME280;48171;51.550;5.434;2023-07-08T09:57:39;101558.41;;;22.50;66.43
61018;BME280;48171;51.550;5.434;2023-07-08T10:00:13;101560.13;;;22.52;66.98
61018;BME280;48171;51.550;5.434;2023-07-08T10:02:43;101568.09;;;22.54;67.70
61018;BME280;48171;51.550;5.434;2023-07-08T10:05:25;101568.00;;;22.57;68.54
61018;BME280;48171;51.550;5.434;2023-07-08T10:07:54;101566.97;;;22.60;66.94
61018;BME280;48171;51.550;5.434;2023-07-08T10:10:30;101564.34;;;22.58;66.81
61018;BME280;48171;51.550;5.434;2023-07-08T10:13:02;101566.97;;;22.60;68.32
61018;BME280;48171;51.550;5.434;2023-07-08T10:15:37;101566.75;;;22.64;68.38
61018;BME280;48171;51.550;5.434;2023-07-08T10:18:03;101564.66;;;22.71;70.58
61018;BME280;48171;51.550;5.434;2023-07-08T10:20:47;101567.00;;;22.79;71.43
61018;BME280;48171;51.550;5.434;2023-07-08T10:23:54;101567.00;;;22.79;68.59
61018;BME280;48171;51.550;5.434;2023-07-08T10:26:29;101574.19;;;22.78;68.42
61018;BME280;48171;51.550;5.434;2023-07-08T10:29:21;101565.91;;;22.83;69.44
61018;BME280;48171;51.550;5.434;2023-07-08T10:31:56;101564.72;;;22.88;68.73
61018;BME280;48171;51.550;5.434;2023-07-08T10:37:15;101573.19;;;23.00;69.15
61018;BME280;48171;51.550;5.434;2023-07-08T10:39:57;101568.50;;;23.05;68.26
61018;BME280;48171;51.550;5.434;2023-07-08T10:45:12;101577.97;;;23.13;67.19
61018;BME280;48171;51.550;5.434;2023-07-08T10:56:42;101573.44;;;23.33;67.57
61018;BME280;48171;51.550;5.434;2023-07-08T11:05:10;101573.09;;;23.58;64.65
61018;BME280;48171;51.550;5.434;2023-07-08T11:10:52;101568.06;;;23.87;63.76
61018;BME280;48171;51.550;5.434;2023-07-08T11:13:23;101575.22;;;23.88;64.13
61018;BME280;48171;51.550;5.434;2023-07-08T11:15:57;101571.41;;;23.92;63.52
61018;BME280;48171;51.550;5.434;2023-07-08T11:18:42;101566.63;;;23.97;62.19
61018;BME280;48171;51.550;5.434;2023-07-08T11:21:15;101573.00;;;23.96;60.26
61018;BME280;48171;51.550;5.434;2023-07-08T11:26:40;101571.31;;;23.93;61.72
61018;BME280;48171;51.550;5.434;2023-07-08T11:29:15;101575.78;;;23.94;60.31
61018;BME280;48171;51.550;5.434;2023-07-08T11:31:42;101566.22;;;23.87;59.68
61018;BME280;48171;51.550;5.434;2023-07-08T11:34:10;101570.84;;;24.03;61.30
61018;BME280;48171;51.550;5.434;2023-07-08T11:36:37;101566.13;;;24.24;61.13
61018;BME280;48171;51.550;5.434;2023-07-08T11:39:33;101569.72;;;24.24;61.03
61018;BME280;48171;51.550;5.434;2023-07-08T11:42:19;101559.16;;;24.20;60.18
61018;BME280;48171;51.550;5.434;2023-07-08T11:44:53;101561.00;;;24.19;57.80
61018;BME280;48171;51.550;5.434;2023-07-08T11:47:37;101561.00;;;24.19;59.95
61018;BME280;48171;51.550;5.434;2023-07-08T11:50:03;101554.72;;;24.19;59.28
61018;BME280;48171;51.550;5.434;2023-07-08T11:52:49;101547.66;;;24.16;59.91
61018;BME280;48171;51.550;5.434;2023-07-08T11:55:22;101545.50;;;24.23;59.92
61018;BME280;48171;51.550;5.434;2023-07-08T11:57:52;101548.59;;;24.32;58.62
61018;BME280;48171;51.550;5.434;2023-07-08T12:00:22;101547.28;;;24.40;56.56
61018;BME280;48171;51.550;5.434;2023-07-08T12:02:59;101541.66;;;24.44;56.25
61018;BME280;48171;51.550;5.434;2023-07-08T12:05:30;101547.94;;;24.45;55.80
61018;BME280;48171;51.550;5.434;2023-07-08T12:07:57;101535.22;;;24.47;59.20
61018;BME280;48171;51.550;5.434;2023-07-08T12:10:40;101538.66;;;24.50;59.85
61018;BME280;48171;51.550;5.434;2023-07-08T12:13:13;101529.56;;;24.51;59.46
61018;BME280;48171;51.550;5.434;2023-07-08T12:15:40;101531.41;;;24.51;59.46
61018;BME280;48171;51.550;5.434;2023-07-08T12:18:31;101529.09;;;24.61;60.04
61018;BME280;48171;51.550;5.434;2023-07-08T12:20:57;101531.53;;;24.65;51.97
61018;BME280;48171;51.550;5.434;2023-07-08T12:23:25;101530.47;;;24.68;54.99
61018;BME280;48171;51.550;5.434;2023-07-08T12:25:52;101522.91;;;24.74;55.57
61018;BME280;48171;51.550;5.434;2023-07-08T12:28:19;101521.34;;;24.86;59.15
61018;BME280;48171;51.550;5.434;2023-07-08T12:30:45;101524.59;;;24.93;57.11
61018;BME280;48171;51.550;5.434;2023-07-08T12:33:14;101527.22;;;24.94;53.25
61018;BME280;48171;51.550;5.434;2023-07-08T12:35:41;101514.28;;;25.00;53.97
61018;BME280;48171;51.550;5.434;2023-07-08T12:38:41;101511.66;;;24.98;56.33
61018;BME280;48171;51.550;5.434;2023-07-08T12:41:12;101510.63;;;25.01;55.33
61018;BME280;48171;51.550;5.434;2023-07-08T12:43:38;101508.72;;;25.03;56.77
61018;BME280;48171;51.550;5.434;2023-07-08T12:46:03;101505.81;;;25.06;57.89
61018;BME280;48171;51.550;5.434;2023-07-08T12:48:36;101506.59;;;25.08;54.19
61018;BME280;48171;51.550;5.434;2023-07-08T12:51:09;101506.94;;;25.18;54.11
61018;BME280;48171;51.550;5.434;2023-07-08T12:53:35;101511.38;;;25.19;55.29
61018;BME280;48171;51.550;5.434;2023-07-08T12:56:01;101501.13;;;25.25;52.95
61018;BME280;48171;51.550;5.434;2023-07-08T12:58:33;101508.19;;;25.28;54.12
61018;BME280;48171;51.550;5.434;2023-07-08T13:01:01;101506.97;;;25.33;50.68
61018;BME280;48171;51.550;5.434;2023-07-08T13:03:30;101501.47;;;25.35;50.07
61018;BME280;48171;51.550;5.434;2023-07-08T13:05:59;101507.56;;;25.39;52.98
61018;BME280;48171;51.550;5.434;2023-07-08T13:08:29;101510.59;;;25.48;56.75
61018;BME280;48171;51.550;5.434;2023-07-08T13:10:57;101508.94;;;25.46;56.17
61018;BME280;48171;51.550;5.434;2023-07-08T13:13:27;101507.88;;;25.48;54.56
61018;BME280;48171;51.550;5.434;2023-07-08T13:15:54;101505.09;;;25.50;54.26
61018;BME280;48171;51.550;5.434;2023-07-08T13:18:24;101506.25;;;25.46;53.88
61018;BME280;48171;51.550;5.434;2023-07-08T13:20:54;101513.63;;;25.58;56.84
61018;BME280;48171;51.550;5.434;2023-07-08T13:23:21;101508.72;;;25.65;54.12
61018;BME280;48171;51.550;5.434;2023-07-08T13:25:50;101499.72;;;25.64;53.95
61018;BME280;48171;51.550;5.434;2023-07-08T13:28:24;101502.25;;;25.67;54.91
61018;BME280;48171;51.550;5.434;2023-07-08T13:33:20;101494.22;;;25.66;54.35
61018;BME280;48171;51.550;5.434;2023-07-08T13:35:46;101501.00;;;25.73;54.80
61018;BME280;48171;51.550;5.434;2023-07-08T13:38:19;101498.19;;;25.74;54.96
61018;BME280;48171;51.550;5.434;2023-07-08T13:40:48;101490.78;;;25.78;55.59
61018;BME280;48171;51.550;5.434;2023-07-08T13:43:14;101492.25;;;25.84;52.27
61018;BME280;48171;51.550;5.434;2023-07-08T13:45:44;101498.31;;;25.87;52.96
61018;BME280;48171;51.550;5.434;2023-07-08T13:48:21;101496.38;;;25.89;54.48